Time;durP1;ratioP1;P1;durP2;ratioP2;P2;SDS_P1;SDS_P2;PMS_P1;PMS_P2;Temp;Humidity;BMP_temperature;BMP_pressure;BME280_temperature;BME280_humidity;BME280_pressure;Samples;Min_cycle;Max_cycle;Signal;HPM_P1;HPM_P2
2022/11/03 00:00:30;;;;;;;;;;;11.50;99.90;;;;;;5035080;28;20331;-78
2022/11/03 00:02:56;;;;;;;;;;;11.50;99.90;;;;;;5083199;22;19966;-82
2022/11/03 00:08:05;;;;;;;;;;;11.50;99.90;;;;;;5079774;28;20034;-82
2022/11/03 00:10:31;;;;;;;;;;;11.50;99.90;;;;;;5060518;28;19954;-82
2022/11/03 00:12:56;;;;;;;;;;;11.50;99.90;;;;;;5060806;28;19909;-82
2022/11/03 00:15:22;;;;;;;;;;;11.50;99.90;;;;;;5078080;28;20141;-82
2022/11/03 00:17:47;;;;;;;;;;;11.50;99.90;;;;;;5061201;28;19916;-81
2022/11/03 00:20:13;;;;;;;;;;;11.50;99.90;;;;;;5060041;28;19901;-82
2022/11/03 00:22:38;;;;;;;;;;;11.50;99.90;;;;;;5060496;28;19909;-83
2022/11/03 00:25:04;;;;;;;;;;;11.50;99.90;;;;;;5059656;28;20007;-82
2022/11/03 00:27:29;;;;;;;;;;;11.50;99.90;;;;;;5076791;28;20003;-82
2022/11/03 00:29:55;;;;;;;;;;;11.60;99.90;;;;;;5059330;28;19908;-82
2022/11/03 00:32:20;;;;;;;;;;;11.60;99.90;;;;;;5060414;28;19916;-82
2022/11/03 00:34:46;;;;;;;;;;;11.60;99.90;;;;;;5077761;28;19909;-81
2022/11/03 00:37:11;;;;;;;;;;;11.60;99.90;;;;;;5077673;28;19998;-81
2022/11/03 00:39:37;;;;;;;;;;;11.60;99.90;;;;;;5060264;28;20363;-81
2022/11/03 00:42:02;;;;;;;;;;;11.70;99.90;;;;;;5077366;28;19937;-81
2022/11/03 00:44:28;;;;;;;;;;;11.70;99.90;;;;;;5059819;28;20291;-81
2022/11/03 00:46:53;;;;;;;;;;;11.70;99.90;;;;;;5058956;28;19909;-81
2022/11/03 00:49:19;;;;;;;;;;;11.70;99.90;;;;;;5059250;28;19930;-81
2022/11/03 00:51:44;;;;;;;;;;;11.70;99.90;;;;;;5079089;28;20390;-82
2022/11/03 00:54:10;;;;;;;;;;;11.70;99.90;;;;;;5059875;28;19908;-82
2022/11/03 00:56:39;;;;;;;;;;;11.70;99.90;;;;;;5059003;28;19970;-81
2022/11/03 00:59:05;;;;;;;;;;;11.70;99.90;;;;;;5059376;28;19913;-82
2022/11/03 01:01:33;;;;;;;;;;;11.70;99.90;;;;;;5076874;28;19912;-81
2022/11/03 01:07:00;;;;;;;;;;;11.70;99.90;;;;;;5015044;28;19961;-82
2022/11/03 01:09:27;;;;;;;;;;;11.70;99.90;;;;;;5064275;28;19908;-81
2022/11/03 01:11:52;;;;;;;;;;;11.70;99.90;;;;;;5077848;28;19951;-82
2022/11/03 01:14:18;;;;;;;;;;;11.80;99.90;;;;;;5078224;28;19908;-82
2022/11/03 01:16:44;;;;;;;;;;;11.70;99.90;;;;;;5077285;28;19962;-82
2022/11/03 01:19:09;;;;;;;;;;;11.80;99.90;;;;;;5078404;28;19912;-82
2022/11/03 01:21:34;;;;;;;;;;;11.70;99.90;;;;;;5059096;28;19912;-82
2022/11/03 01:24:01;;;;;;;;;;;11.70;99.90;;;;;;5077558;28;19955;-82
2022/11/03 01:26:26;;;;;;;;;;;11.70;99.90;;;;;;5076128;28;19916;-81
2022/11/03 01:28:52;;;;;;;;;;;11.70;99.90;;;;;;5058698;28;20326;-81
2022/11/03 01:31:18;;;;;;;;;;;11.70;99.90;;;;;;5059047;28;19909;-82
2022/11/03 01:33:44;;;;;;;;;;;11.70;99.90;;;;;;5076862;28;19909;-82
2022/11/03 01:36:11;;;;;;;;;;;11.70;99.90;;;;;;5058797;28;19909;-81
2022/11/03 01:38:36;;;;;;;;;;;11.70;99.90;;;;;;5076665;28;20356;-81
2022/11/03 01:41:03;;;;;;;;;;;11.70;99.90;;;;;;5057316;28;19916;-81
2022/11/03 01:43:30;;;;;;;;;;;11.70;99.90;;;;;;5058970;28;19916;-81
2022/11/03 01:45:58;;;;;;;;;;;11.70;99.90;;;;;;5060693;28;19908;-81
2022/11/03 01:48:24;;;;;;;;;;;11.70;99.90;;;;;;5063140;28;20371;-81
2022/11/03 01:50:50;;;;;;;;;;;11.70;99.90;;;;;;5063414;28;19915;-82
2022/11/03 01:53:16;;;;;;;;;;;11.70;99.90;;;;;;5062443;28;19908;-83
2022/11/03 01:55:42;;;;;;;;;;;11.70;99.90;;;;;;5062731;28;20003;-83
2022/11/03 01:58:19;;;;;;;;;;;11.70;99.90;;;;;;5062378;28;19920;-81
2022/11/03 02:00:46;;;;;;;;;;;11.70;99.90;;;;;;5080646;28;19915;-81
2022/11/03 02:03:13;;;;;;;;;;;11.70;99.90;;;;;;5080690;28;19900;-81
2022/11/03 02:05:40;;;;;;;;;;;11.80;99.90;;;;;;5062442;28;19975;-83
2022/11/03 02:08:12;;;;;;;;;;;11.70;99.90;;;;;;5080480;28;19931;-83
2022/11/03 02:10:37;;;;;;;;;;;11.70;99.90;;;;;;5061017;28;19916;-83
2022/11/03 02:13:06;;;;;;;;;;;11.70;99.90;;;;;;5060856;28;19909;-83
2022/11/03 02:15:32;;;;;;;;;;;11.70;99.90;;;;;;5080523;28;19946;-83
2022/11/03 02:17:58;;;;;;;;;;;11.70;99.90;;;;;;5060408;28;19999;-83
2022/11/03 02:20:25;;;;;;;;;;;11.70;99.90;;;;;;5060642;28;19978;-81
2022/11/03 02:23:10;;;;;;;;;;;11.70;99.90;;;;;;5061273;28;19915;-81
2022/11/03 02:25:41;;;;;;;;;;;11.60;99.90;;;;;;5061463;28;19908;-83
2022/11/03 02:28:07;;;;;;;;;;;11.60;99.90;;;;;;5063012;28;19962;-83
2022/11/03 02:30:37;;;;;;;;;;;11.60;99.90;;;;;;5062153;28;19913;-80
2022/11/03 02:33:26;;;;;;;;;;;11.60;99.90;;;;;;5060814;28;19913;-82
2022/11/03 02:35:57;;;;;;;;;;;11.50;99.90;;;;;;5031511;28;20279;-82
2022/11/03 02:38:24;;;;;;;;;;;11.60;99.90;;;;;;5058172;28;19924;-82
2022/11/03 02:40:52;;;;;;;;;;;11.60;99.90;;;;;;5057956;28;19972;-81
2022/11/03 02:43:19;;;;;;;;;;;11.60;99.90;;;;;;5076712;28;20007;-82
2022/11/03 02:45:46;;;;;;;;;;;11.60;99.90;;;;;;5058385;28;19955;-80
2022/11/03 02:48:13;;;;;;;;;;;11.60;99.90;;;;;;5061340;28;19915;-82
2022/11/03 02:50:39;;;;;;;;;;;11.60;99.90;;;;;;5063218;28;19908;-82
2022/11/03 02:53:04;;;;;;;;;;;11.60;99.90;;;;;;5065690;28;19930;-80
2022/11/03 02:55:30;;;;;;;;;;;11.60;99.90;;;;;;5066724;28;19916;-83
2022/11/03 02:57:58;;;;;;;;;;;11.60;99.90;;;;;;5065837;28;19912;-81
2022/11/03 03:00:23;;;;;;;;;;;11.60;99.90;;;;;;5065569;28;19908;-81
2022/11/03 03:02:49;;;;;;;;;;;11.60;99.90;;;;;;5065595;28;20410;-82
2022/11/03 03:05:16;;;;;;;;;;;11.60;99.90;;;;;;5066248;28;19909;-83
2022/11/03 03:07:47;;;;;;;;;;;11.60;99.90;;;;;;5065413;28;19913;-82
2022/11/03 03:10:17;;;;;;;;;;;11.60;99.90;;;;;;5085095;28;19913;-83
2022/11/03 03:12:47;;;;;;;;;;;11.70;99.90;;;;;;5061887;28;19912;-81
2022/11/03 03:15:14;;;;;;;;;;;11.70;99.90;;;;;;5060908;28;19912;-81
2022/11/03 03:17:51;;;;;;;;;;;11.70;99.90;;;;;;5080334;28;19919;-82
2022/11/03 03:20:23;;;;;;;;;;;11.70;99.90;;;;;;5060422;28;19916;-82
2022/11/03 03:22:59;;;;;;;;;;;11.70;99.90;;;;;;5079294;28;19923;-81
2022/11/03 03:25:29;;;;;;;;;;;11.70;99.90;;;;;;5061007;28;19919;-82
2022/11/03 03:28:01;;;;;;;;;;;11.70;99.90;;;;;;5061685;28;19917;-81
2022/11/03 03:30:29;;;;;;;;;;;11.80;99.90;;;;;;5060848;28;19940;-81
2022/11/03 03:32:56;;;;;;;;;;;11.70;99.90;;;;;;5060711;28;19917;-82
2022/11/03 03:35:23;;;;;;;;;;;11.70;99.90;;;;;;5061686;28;19958;-81
2022/11/03 03:37:50;;;;;;;;;;;11.70;99.90;;;;;;5061498;28;20348;-81
2022/11/03 03:40:20;;;;;;;;;;;11.80;99.90;;;;;;5061667;28;20391;-82
2022/11/03 03:42:46;;;;;;;;;;;11.80;99.90;;;;;;5079653;28;20522;-82
2022/11/03 03:45:11;;;;;;;;;;;11.70;99.90;;;;;;5061500;28;19909;-82
2022/11/03 03:47:37;;;;;;;;;;;11.80;99.90;;;;;;5080007;28;19995;-82
2022/11/03 03:50:02;;;;;;;;;;;11.80;99.90;;;;;;5061906;28;19912;-82
2022/11/03 03:52:29;;;;;;;;;;;11.70;99.90;;;;;;5061698;28;19915;-82
2022/11/03 03:54:54;;;;;;;;;;;11.70;99.90;;;;;;5079553;28;19940;-82
2022/11/03 03:57:22;;;;;;;;;;;11.70;99.90;;;;;;5060986;28;19916;-82
2022/11/03 03:59:47;;;;;;;;;;;11.70;99.90;;;;;;5079845;28;19915;-82
2022/11/03 04:02:13;;;;;;;;;;;11.70;99.90;;;;;;5062152;28;20306;-81
2022/11/03 04:04:38;;;;;;;;;;;11.70;99.90;;;;;;5062220;28;19909;-81
2022/11/03 04:09:48;;;;;;;;;;;11.70;99.90;;;;;;5084408;28;20367;-81
2022/11/03 04:23:12;;;;;;;;;;;11.60;99.90;;;;;;5077616;28;19915;-81
2022/11/03 04:25:38;;;;;;;;;;;11.60;99.90;;;;;;5059531;28;19909;-82
2022/11/03 04:28:11;;;;;;;;;;;11.60;99.90;;;;;;5060260;28;19915;-81
2022/11/03 04:30:36;;;;;;;;;;;11.60;99.90;;;;;;5078946;28;19915;-82
2022/11/03 04:33:04;;;;;;;;;;;11.60;99.90;;;;;;5066798;28;19912;-83
2022/11/03 04:35:29;;;;;;;;;;;11.60;99.90;;;;;;5064675;28;20310;-81
2022/11/03 04:38:00;;;;;;;;;;;11.60;99.90;;;;;;5063265;28;19973;-81
2022/11/03 04:40:26;;;;;;;;;;;11.60;99.90;;;;;;5063846;28;19909;-81
2022/11/03 04:42:52;;;;;;;;;;;11.60;99.90;;;;;;5079123;28;20111;-81
2022/11/03 04:45:23;;;;;;;;;;;11.60;99.90;;;;;;5063916;28;19912;-81
2022/11/03 04:47:49;;;;;;;;;;;11.60;99.90;;;;;;5060789;28;20288;-81
2022/11/03 04:50:17;;;;;;;;;;;11.60;99.90;;;;;;5078920;28;19909;-81
2022/11/03 04:52:42;;;;;;;;;;;11.60;99.90;;;;;;5075932;28;19934;-82
2022/11/03 04:55:14;;;;;;;;;;;11.60;99.90;;;;;;5059988;28;20011;-82
2022/11/03 04:57:39;;;;;;;;;;;11.60;99.90;;;;;;5060137;28;19919;-82
2022/11/03 05:00:06;;;;;;;;;;;11.70;99.90;;;;;;5060097;28;20403;-81
2022/11/03 05:02:31;;;;;;;;;;;11.70;99.90;;;;;;5076335;28;19923;-81
2022/11/03 05:04:57;;;;;;;;;;;11.70;99.90;;;;;;5059798;28;19908;-82
2022/11/03 05:07:22;;;;;;;;;;;11.70;99.90;;;;;;5080898;28;19917;-82
2022/11/03 05:09:48;;;;;;;;;;;11.70;99.90;;;;;;5078550;28;19908;-81
2022/11/03 05:12:13;;;;;;;;;;;11.80;99.90;;;;;;5078025;28;19908;-82
2022/11/03 05:14:39;;;;;;;;;;;11.80;99.90;;;;;;5079122;28;19909;-82
2022/11/03 05:17:14;;;;;;;;;;;11.80;99.90;;;;;;5077016;28;20421;-81
2022/11/03 05:19:41;;;;;;;;;;;11.80;99.90;;;;;;5059367;28;19915;-80
2022/11/03 05:22:12;;;;;;;;;;;11.80;99.90;;;;;;5077630;28;19931;-81
2022/11/03 05:24:38;;;;;;;;;;;11.80;99.90;;;;;;5077489;28;19913;-82
2022/11/03 05:27:07;;;;;;;;;;;11.90;99.90;;;;;;5059340;28;20003;-82
2022/11/03 05:29:36;;;;;;;;;;;11.90;99.90;;;;;;5075914;28;19963;-81
2022/11/03 05:32:02;;;;;;;;;;;11.90;99.90;;;;;;5075829;28;19908;-80
2022/11/03 05:34:28;;;;;;;;;;;12.00;99.90;;;;;;5076364;28;19961;-81
2022/11/03 05:36:53;;;;;;;;;;;12.00;99.90;;;;;;5058996;28;19908;-82
2022/11/03 05:39:33;;;;;;;;;;;12.00;99.90;;;;;;5059451;28;19919;-82
2022/11/03 05:41:59;;;;;;;;;;;12.10;99.90;;;;;;5076882;28;19966;-81
2022/11/03 05:44:28;;;;;;;;;;;12.10;99.90;;;;;;5075325;28;19908;-82
2022/11/03 05:46:55;;;;;;;;;;;12.10;99.90;;;;;;5059141;28;19908;-82
2022/11/03 05:49:21;;;;;;;;;;;12.10;99.90;;;;;;5075660;28;19915;-81
2022/11/03 05:51:46;;;;;;;;;;;12.10;99.90;;;;;;5076719;28;19995;-82
2022/11/03 05:54:18;;;;;;;;;;;12.10;99.90;;;;;;5077369;28;20367;-82
2022/11/03 05:56:44;;;;;;;;;;;12.10;99.90;;;;;;5075644;28;19909;-82
2022/11/03 05:59:09;;;;;;;;;;;12.10;99.90;;;;;;5060181;28;19920;-82
2022/11/03 06:01:36;;;;;;;;;;;12.10;99.90;;;;;;5077303;28;20033;-82
2022/11/03 06:04:11;;;;;;;;;;;12.10;99.90;;;;;;5079678;28;19920;-83
2022/11/03 06:06:37;;;;;;;;;;;12.10;99.90;;;;;;5082118;28;19943;-83
2022/11/03 06:09:08;;;;;;;;;;;12.10;99.90;;;;;;5079591;28;19913;-81
2022/11/03 06:11:35;;;;;;;;;;;12.10;99.90;;;;;;5082584;28;19939;-82
2022/11/03 06:14:01;;;;;;;;;;;12.10;99.90;;;;;;5080705;28;19908;-83
2022/11/03 06:16:30;;;;;;;;;;;12.10;99.90;;;;;;5078228;28;19908;-83
2022/11/03 06:18:55;;;;;;;;;;;12.10;99.90;;;;;;5080014;28;20002;-83
2022/11/03 06:21:22;;;;;;;;;;;12.10;99.90;;;;;;5080842;28;19908;-83
2022/11/03 06:23:48;;;;;;;;;;;12.10;99.90;;;;;;5062024;28;20003;-81
2022/11/03 06:26:23;;;;;;;;;;;12.10;99.90;;;;;;5064678;28;19944;-84
2022/11/03 06:28:48;;;;;;;;;;;12.10;99.90;;;;;;5086941;28;20275;-83
2022/11/03 06:31:19;;;;;;;;;;;12.10;99.90;;;;;;5069091;28;19908;-80
2022/11/03 06:33:45;;;;;;;;;;;12.10;99.90;;;;;;5086082;28;20386;-82
2022/11/03 06:36:21;;;;;;;;;;;12.10;99.90;;;;;;5087966;28;19908;-82
2022/11/03 06:38:53;;;;;;;;;;;12.10;99.90;;;;;;5085745;28;20394;-82
2022/11/03 06:41:21;;;;;;;;;;;12.10;99.90;;;;;;5086369;28;19962;-82
2022/11/03 06:43:47;;;;;;;;;;;12.10;99.90;;;;;;5086542;28;19908;-82
2022/11/03 06:46:23;;;;;;;;;;;12.10;99.90;;;;;;5087064;28;19943;-81
2022/11/03 06:48:48;;;;;;;;;;;12.10;99.90;;;;;;5070832;28;20572;-84
2022/11/03 06:51:25;;;;;;;;;;;12.20;99.90;;;;;;5086868;28;19916;-82
2022/11/03 06:53:51;;;;;;;;;;;12.20;99.90;;;;;;5082054;28;19991;-82
2022/11/03 06:56:21;;;;;;;;;;;12.20;99.90;;;;;;5080867;28;19915;-82
2022/11/03 06:58:47;;;;;;;;;;;12.20;99.90;;;;;;5081147;28;19922;-81
2022/11/03 07:01:15;;;;;;;;;;;12.20;99.90;;;;;;5080695;28;19916;-82
2022/11/03 07:03:40;;;;;;;;;;;12.20;99.90;;;;;;5064289;28;19960;-82
2022/11/03 07:06:09;;;;;;;;;;;12.20;99.90;;;;;;5082625;28;19909;-84
2022/11/03 07:08:36;;;;;;;;;;;12.20;99.90;;;;;;5064990;28;19966;-83
2022/11/03 07:11:05;;;;;;;;;;;12.20;99.90;;;;;;5080531;28;19908;-82
2022/11/03 07:13:33;;;;;;;;;;;12.30;99.90;;;;;;5080901;28;20434;-81
2022/11/03 07:15:59;;;;;;;;;;;12.40;99.90;;;;;;5083645;28;19915;-82
2022/11/03 07:18:26;;;;;;;;;;;12.50;99.90;;;;;;5082110;28;19913;-82
2022/11/03 07:20:52;;;;;;;;;;;12.60;99.90;;;;;;5081702;28;20400;-81
2022/11/03 07:23:20;;;;;;;;;;;12.70;99.90;;;;;;5063759;28;19908;-82
2022/11/03 07:25:48;;;;;;;;;;;12.80;99.90;;;;;;5080538;28;19909;-81
2022/11/03 07:28:14;;;;;;;;;;;12.80;99.90;;;;;;5079821;28;19909;-82
2022/11/03 07:30:39;;;;;;;;;;;12.90;99.90;;;;;;5062722;28;19954;-82
2022/11/03 07:33:11;;;;;;;;;;;12.90;99.90;;;;;;5062400;28;19915;-81
2022/11/03 07:35:39;;;;;;;;;;;13.00;99.90;;;;;;5078940;28;19913;-82
2022/11/03 07:38:10;;;;;;;;;;;13.10;99.90;;;;;;5062460;28;19919;-82
2022/11/03 07:40:36;;;;;;;;;;;13.20;99.90;;;;;;5079189;28;20538;-81
2022/11/03 07:43:10;;;;;;;;;;;13.20;99.90;;;;;;5078697;28;19984;-81
2022/11/03 07:45:40;;;;;;;;;;;13.30;99.90;;;;;;5077009;28;20285;-82
2022/11/03 07:48:15;;;;;;;;;;;13.40;99.90;;;;;;5061140;28;20032;-83
2022/11/03 07:50:41;;;;;;;;;;;13.50;99.90;;;;;;5079708;28;20372;-82
2022/11/03 07:53:17;;;;;;;;;;;13.60;99.90;;;;;;5078046;28;19915;-82
2022/11/03 07:55:44;;;;;;;;;;;13.70;99.90;;;;;;5077663;28;19999;-82
2022/11/03 07:58:24;;;;;;;;;;;13.70;99.90;;;;;;5079055;28;19966;-82
2022/11/03 08:00:52;;;;;;;;;;;13.80;99.90;;;;;;5077409;28;19908;-82
2022/11/03 08:03:26;;;;;;;;;;;13.70;99.90;;;;;;5078663;28;20399;-82
2022/11/03 08:05:52;;;;;;;;;;;13.80;99.90;;;;;;5077049;28;19916;-82
2022/11/03 08:08:17;;;;;;;;;;;13.80;99.90;;;;;;5060254;28;20288;-81
2022/11/03 08:10:42;;;;;;;;;;;13.80;99.90;;;;;;5060535;28;19912;-82
2022/11/03 08:13:08;;;;;;;;;;;13.70;99.90;;;;;;5061356;28;20003;-83
2022/11/03 08:15:33;;;;;;;;;;;13.80;99.90;;;;;;5061996;28;20405;-83
2022/11/03 08:17:59;;;;;;;;;;;13.80;99.90;;;;;;5078714;28;19912;-82
2022/11/03 08:20:24;;;;;;;;;;;13.90;99.90;;;;;;5060692;28;20014;-83
2022/11/03 08:22:50;;;;;;;;;;;14.00;99.90;;;;;;5060428;28;20399;-82
2022/11/03 08:25:15;;;;;;;;;;;14.00;99.90;;;;;;5060763;28;19908;-82
2022/11/03 08:27:41;;;;;;;;;;;14.10;99.90;;;;;;5061192;28;20064;-82
2022/11/03 08:30:06;;;;;;;;;;;14.20;99.90;;;;;;5078859;28;20532;-83
2022/11/03 08:32:32;;;;;;;;;;;14.20;99.90;;;;;;5060586;28;19912;-83
2022/11/03 08:34:57;;;;;;;;;;;14.30;99.90;;;;;;5059864;28;19917;-82
2022/11/03 08:37:23;;;;;;;;;;;14.40;99.90;;;;;;5078371;28;19970;-82
2022/11/03 08:39:48;;;;;;;;;;;14.40;99.90;;;;;;5058668;28;19908;-81
2022/11/03 08:42:13;;;;;;;;;;;14.50;99.90;;;;;;5060736;28;19916;-80
2022/11/03 08:44:39;;;;;;;;;;;14.50;99.90;;;;;;5060820;28;20269;-82
2022/11/03 08:47:04;;;;;;;;;;;14.60;99.90;;;;;;5060336;28;19908;-83
2022/11/03 08:49:30;;;;;;;;;;;14.80;99.90;;;;;;5060257;28;20046;-83
2022/11/03 08:51:55;;;;;;;;;;;14.80;99.90;;;;;;5060322;28;20303;-83
2022/11/03 08:54:21;;;;;;;;;;;14.80;99.90;;;;;;5060988;28;19965;-82
2022/11/03 08:56:47;;;;;;;;;;;15.00;99.90;;;;;;5060926;28;19908;-82
2022/11/03 08:59:13;;;;;;;;;;;15.10;99.90;;;;;;5060338;28;19912;-83
2022/11/03 09:01:38;;;;;;;;;;;15.20;99.90;;;;;;5060878;28;19930;-83
2022/11/03 09:04:04;;;;;;;;;;;15.30;99.90;;;;;;5060797;28;20376;-83
2022/11/03 09:06:29;;;;;;;;;;;15.30;99.90;;;;;;5060093;28;19916;-82
2022/11/03 09:08:55;;;;;;;;;;;15.50;99.90;;;;;;5063098;28;19913;-82
2022/11/03 09:11:20;;;;;;;;;;;15.50;99.90;;;;;;5063114;28;19916;-81
2022/11/03 09:13:46;;;;;;;;;;;15.60;99.90;;;;;;5060066;28;20337;-82
2022/11/03 09:16:11;;;;;;;;;;;15.60;99.90;;;;;;5061980;28;19986;-83
2022/11/03 09:18:37;;;;;;;;;;;15.70;99.90;;;;;;5063540;28;19913;-81
2022/11/03 09:21:02;;;;;;;;;;;15.70;99.90;;;;;;5061962;28;19913;-83
2022/11/03 09:23:27;;;;;;;;;;;15.80;99.90;;;;;;5062463;28;19908;-81
2022/11/03 09:25:53;;;;;;;;;;;15.80;99.90;;;;;;5062004;28;20338;-83
2022/11/03 09:28:18;;;;;;;;;;;15.80;99.90;;;;;;5079681;28;19920;-82
2022/11/03 09:30:44;;;;;;;;;;;15.90;99.90;;;;;;5063563;28;20387;-82
2022/11/03 09:33:09;;;;;;;;;;;16.00;99.90;;;;;;5063289;28;19909;-84
2022/11/03 09:35:35;;;;;;;;;;;16.20;99.90;;;;;;5079967;28;19993;-81
2022/11/03 09:38:00;;;;;;;;;;;16.20;99.90;;;;;;5056493;28;19917;-82
2022/11/03 09:40:26;;;;;;;;;;;16.30;99.90;;;;;;5076450;28;19919;-83
2022/11/03 09:42:51;;;;;;;;;;;16.30;99.90;;;;;;5046055;28;20454;-83
2022/11/03 09:45:17;;;;;;;;;;;16.40;99.90;;;;;;5059136;28;19909;-84
2022/11/03 09:47:45;;;;;;;;;;;16.30;99.90;;;;;;5059162;28;19916;-84
2022/11/03 09:50:13;;;;;;;;;;;16.40;99.90;;;;;;5042963;28;20015;-81
2022/11/03 09:52:38;;;;;;;;;;;16.40;99.90;;;;;;5042540;28;19909;-85
2022/11/03 09:55:08;;;;;;;;;;;16.30;99.90;;;;;;5042124;28;19916;-83
2022/11/03 09:57:35;;;;;;;;;;;16.30;99.90;;;;;;5041589;28;19913;-82
2022/11/03 10:00:02;;;;;;;;;;;16.10;99.90;;;;;;5042663;28;20345;-86
2022/11/03 10:02:29;;;;;;;;;;;16.00;99.90;;;;;;5042466;28;20011;-84
2022/11/03 10:04:56;;;;;;;;;;;15.90;99.90;;;;;;5041834;28;19916;-83
2022/11/03 10:07:22;;;;;;;;;;;15.90;99.90;;;;;;5040887;28;19954;-84
2022/11/03 10:09:49;;;;;;;;;;;16.00;99.90;;;;;;5061142;28;19958;-83
2022/11/03 10:12:15;;;;;;;;;;;16.00;99.90;;;;;;5041278;28;20000;-84
2022/11/03 10:14:42;;;;;;;;;;;16.00;99.90;;;;;;5042673;28;19979;-82
2022/11/03 10:17:13;;;;;;;;;;;16.00;99.90;;;;;;5057303;28;19917;-83
2022/11/03 10:19:38;;;;;;;;;;;16.00;99.90;;;;;;5057649;28;19908;-83
2022/11/03 10:22:04;;;;;;;;;;;16.00;99.90;;;;;;5081476;28;19983;-82
2022/11/03 10:24:29;;;;;;;;;;;16.00;99.90;;;;;;5080476;28;19951;-82
2022/11/03 10:26:55;;;;;;;;;;;16.10;99.90;;;;;;5061409;28;19915;-85
2022/11/03 10:29:22;;;;;;;;;;;16.10;99.90;;;;;;5062610;28;19909;-83
2022/11/03 10:31:49;;;;;;;;;;;16.20;99.90;;;;;;5060747;28;19962;-82
2022/11/03 10:34:35;;;;;;;;;;;16.30;99.90;;;;;;5058008;28;19947;-83
2022/11/03 10:37:09;;;;;;;;;;;16.20;99.90;;;;;;5058370;28;19909;-83
2022/11/03 10:39:34;;;;;;;;;;;16.20;99.90;;;;;;5040609;28;19959;-85
2022/11/03 10:42:00;;;;;;;;;;;16.20;99.90;;;;;;5060110;28;19909;-83
2022/11/03 10:44:27;;;;;;;;;;;16.20;99.90;;;;;;5057177;28;19912;-81
2022/11/03 10:46:59;;;;;;;;;;;16.20;99.90;;;;;;5059600;28;20004;-80
2022/11/03 10:49:29;;;;;;;;;;;16.00;99.90;;;;;;5038754;28;19909;-82
2022/11/03 10:51:57;;;;;;;;;;;15.90;99.90;;;;;;5039844;28;19944;-85
2022/11/03 10:54:23;;;;;;;;;;;15.80;99.90;;;;;;5040566;28;19951;-82
2022/11/03 10:56:57;;;;;;;;;;;15.70;99.90;;;;;;5060477;28;20376;-81
2022/11/03 10:59:33;;;;;;;;;;;15.70;99.90;;;;;;5038764;28;19916;-82
2022/11/03 11:01:59;;;;;;;;;;;15.60;99.90;;;;;;5042621;28;19924;-83
2022/11/03 11:04:25;;;;;;;;;;;15.50;99.90;;;;;;5061091;28;19983;-83
2022/11/03 11:06:51;;;;;;;;;;;15.50;99.90;;;;;;5056452;28;19912;-81
2022/11/03 11:09:21;;;;;;;;;;;15.50;99.90;;;;;;5042331;28;19909;-84
2022/11/03 11:12:04;;;;;;;;;;;15.50;99.90;;;;;;5059556;28;20335;-83
2022/11/03 11:14:33;;;;;;;;;;;15.60;99.90;;;;;;5061360;28;19909;-82
2022/11/03 11:16:59;;;;;;;;;;;15.50;99.90;;;;;;5043103;28;19908;-81
2022/11/03 11:19:25;;;;;;;;;;;15.50;99.90;;;;;;5043003;28;19920;-81
2022/11/03 11:21:51;;;;;;;;;;;15.40;99.90;;;;;;5060389;28;19909;-81
2022/11/03 11:24:35;;;;;;;;;;;15.40;99.90;;;;;;5060763;28;19915;-81
2022/11/03 11:27:00;;;;;;;;;;;15.50;99.90;;;;;;5041200;28;20380;-81
2022/11/03 11:29:29;;;;;;;;;;;15.60;99.90;;;;;;5059972;28;19916;-82
2022/11/03 11:31:54;;;;;;;;;;;15.70;99.90;;;;;;5042308;28;19909;-81
2022/11/03 11:34:20;;;;;;;;;;;15.80;99.90;;;;;;5059338;28;20003;-81
2022/11/03 11:36:54;;;;;;;;;;;15.90;99.90;;;;;;5040366;28;19909;-81
2022/11/03 11:39:23;;;;;;;;;;;15.80;99.90;;;;;;5040446;28;19970;-81
2022/11/03 11:42:04;;;;;;;;;;;15.80;99.90;;;;;;5041724;28;19908;-81
2022/11/03 11:44:42;;;;;;;;;;;15.60;99.90;;;;;;5042008;28;19908;-81
2022/11/03 11:47:26;;;;;;;;;;;15.50;99.90;;;;;;5057691;28;20335;-81
2022/11/03 11:50:04;;;;;;;;;;;15.50;99.90;;;;;;5041379;28;19983;-83
2022/11/03 11:52:30;;;;;;;;;;;15.40;99.90;;;;;;5042113;28;19962;-82
2022/11/03 11:54:56;;;;;;;;;;;15.30;99.90;;;;;;5041733;28;19916;-81
2022/11/03 11:57:22;;;;;;;;;;;15.30;99.90;;;;;;5057149;28;20332;-82
2022/11/03 11:59:48;;;;;;;;;;;15.20;99.90;;;;;;5041003;28;20567;-82
2022/11/03 12:02:18;;;;;;;;;;;15.20;99.90;;;;;;5039976;28;20403;-81
2022/11/03 12:04:47;;;;;;;;;;;15.10;99.90;;;;;;5039702;28;19936;-82
2022/11/03 12:07:13;;;;;;;;;;;15.00;99.90;;;;;;5040361;28;19909;-81
2022/11/03 12:09:39;;;;;;;;;;;15.00;99.90;;;;;;5059122;28;19916;-82
2022/11/03 12:12:04;;;;;;;;;;;15.10;99.90;;;;;;5056754;28;19908;-81
2022/11/03 12:14:30;;;;;;;;;;;15.20;99.90;;;;;;5057650;28;19916;-82
2022/11/03 12:16:56;;;;;;;;;;;15.20;99.90;;;;;;5039882;28;19908;-82
2022/11/03 12:19:41;;;;;;;;;;;15.20;99.90;;;;;;5060264;28;19964;-83
2022/11/03 12:22:11;;;;;;;;;;;15.20;99.90;;;;;;5040906;28;20400;-84
2022/11/03 12:24:37;;;;;;;;;;;15.40;99.90;;;;;;5042489;28;19931;-83
2022/11/03 12:27:16;;;;;;;;;;;15.40;99.90;;;;;;5059534;28;19948;-82
2022/11/03 12:29:42;;;;;;;;;;;15.50;99.90;;;;;;5040899;28;19974;-81
2022/11/03 12:32:07;;;;;;;;;;;15.60;99.90;;;;;;5056546;28;19908;-81
2022/11/03 12:34:33;;;;;;;;;;;15.50;99.90;;;;;;5057878;28;20493;-81
2022/11/03 12:36:58;;;;;;;;;;;15.50;99.90;;;;;;5056258;28;20007;-81
2022/11/03 12:39:24;;;;;;;;;;;15.50;99.90;;;;;;5057769;28;20280;-81
2022/11/03 12:41:49;;;;;;;;;;;15.50;99.90;;;;;;5058340;28;19958;-81
2022/11/03 12:44:15;;;;;;;;;;;15.50;99.90;;;;;;5056613;28;19916;-81
2022/11/03 12:46:40;;;;;;;;;;;15.40;99.90;;;;;;5058591;28;20422;-81
2022/11/03 12:49:05;;;;;;;;;;;15.30;99.90;;;;;;5057772;28;19909;-82
2022/11/03 12:51:31;;;;;;;;;;;15.20;99.90;;;;;;5058414;28;19966;-81
2022/11/03 12:53:56;;;;;;;;;;;15.20;99.90;;;;;;5057200;28;19909;-81
2022/11/03 12:56:22;;;;;;;;;;;15.20;99.90;;;;;;5057220;28;19909;-81
2022/11/03 12:58:47;;;;;;;;;;;15.10;99.90;;;;;;5057346;28;19912;-81
2022/11/03 13:01:13;;;;;;;;;;;15.10;99.90;;;;;;5060303;28;20454;-84
2022/11/03 13:03:39;;;;;;;;;;;15.10;99.90;;;;;;5059807;28;19913;-84
2022/11/03 13:06:08;;;;;;;;;;;15.10;99.90;;;;;;5039312;28;19909;-81
2022/11/03 13:08:34;;;;;;;;;;;15.20;99.90;;;;;;5040556;28;19915;-80
2022/11/03 13:10:59;;;;;;;;;;;15.20;99.90;;;;;;5040258;28;19909;-81
2022/11/03 13:13:25;;;;;;;;;;;15.20;99.90;;;;;;5040769;28;19913;-81
2022/11/03 13:15:52;;;;;;;;;;;15.20;99.90;;;;;;5056380;28;19916;-81
2022/11/03 13:18:18;;;;;;;;;;;15.30;99.90;;;;;;5040985;28;19916;-81
2022/11/03 13:20:44;;;;;;;;;;;15.40;99.90;;;;;;5068371;28;19916;-81
2022/11/03 13:23:09;;;;;;;;;;;15.40;99.90;;;;;;5060202;28;19909;-82
2022/11/03 13:25:35;;;;;;;;;;;15.50;99.90;;;;;;5079179;28;19930;-82
2022/11/03 13:28:02;;;;;;;;;;;15.50;99.90;;;;;;5060622;28;19908;-80
2022/11/03 13:30:28;;;;;;;;;;;15.50;99.90;;;;;;5078670;28;19995;-81
2022/11/03 13:32:54;;;;;;;;;;;15.50;99.90;;;;;;5077517;28;19971;-81
2022/11/03 13:35:19;;;;;;;;;;;15.50;99.90;;;;;;5077169;28;20344;-82
2022/11/03 13:37:45;;;;;;;;;;;15.50;99.90;;;;;;5079262;28;19913;-81
2022/11/03 13:40:11;;;;;;;;;;;15.50;99.90;;;;;;5061060;28;19960;-82
2022/11/03 13:42:37;;;;;;;;;;;15.50;99.90;;;;;;5075543;28;20394;-82
2022/11/03 13:45:03;;;;;;;;;;;15.40;99.90;;;;;;5060742;28;19908;-80
2022/11/03 13:47:28;;;;;;;;;;;15.40;99.90;;;;;;5065507;28;19916;-83
2022/11/03 13:49:54;;;;;;;;;;;15.30;99.90;;;;;;5056173;28;19916;-82
2022/11/03 13:52:20;;;;;;;;;;;15.10;99.90;;;;;;5074805;28;20363;-82
2022/11/03 13:54:45;;;;;;;;;;;15.00;99.90;;;;;;5054894;28;20019;-83
2022/11/03 13:57:11;;;;;;;;;;;15.00;99.90;;;;;;5055094;28;19913;-82
2022/11/03 13:59:37;;;;;;;;;;;14.90;99.90;;;;;;5037831;28;19944;-84
2022/11/03 14:02:02;;;;;;;;;;;14.90;99.90;;;;;;5056650;28;19917;-82
2022/11/03 14:04:28;;;;;;;;;;;14.90;99.90;;;;;;5037822;28;19917;-81
2022/11/03 14:06:53;;;;;;;;;;;14.90;99.90;;;;;;5037419;28;19909;-82
2022/11/03 14:09:19;;;;;;;;;;;15.00;99.90;;;;;;5037672;28;20299;-82
2022/11/03 14:14:29;;;;;;;;;;;15.00;99.90;;;;;;5057354;28;19915;-81
2022/11/03 14:16:54;;;;;;;;;;;15.00;99.90;;;;;;5036976;28;19909;-82
2022/11/03 14:19:20;;;;;;;;;;;14.90;99.90;;;;;;5037761;28;19913;-82
2022/11/03 14:21:45;;;;;;;;;;;14.80;99.90;;;;;;5056531;28;19908;-82
2022/11/03 14:24:11;;;;;;;;;;;14.80;99.90;;;;;;5039499;28;19912;-82
2022/11/03 14:26:36;;;;;;;;;;;14.70;99.90;;;;;;5037819;28;20361;-82
2022/11/03 14:29:02;;;;;;;;;;;14.40;99.90;;;;;;5039454;28;19912;-82
2022/11/03 14:31:28;;;;;;;;;;;14.20;99.90;;;;;;5040270;28;19931;-82
2022/11/03 14:33:53;;;;;;;;;;;14.10;99.90;;;;;;5039400;28;20334;-83
2022/11/03 14:36:19;;;;;;;;;;;13.90;99.90;;;;;;5054413;28;19908;-85
2022/11/03 14:38:44;;;;;;;;;;;13.70;99.90;;;;;;5075831;28;20280;-83